createdAt,value
2018-05-09T00:00:22.904Z,17.60
2018-05-09T00:02:33.999Z,17.64
2018-05-09T00:04:45.086Z,17.69
2018-05-09T00:06:56.167Z,17.69
2018-05-09T00:09:07.206Z,17.66
2018-05-09T00:11:18.281Z,17.64
2018-05-09T00:13:29.374Z,17.66
2018-05-09T00:15:40.546Z,17.64
2018-05-09T00:17:51.762Z,17.60
2018-05-09T00:20:02.839Z,17.60
2018-05-09T00:22:14.078Z,17.55
2018-05-09T00:24:25.130Z,17.49
2018-05-09T00:26:36.209Z,17.44
2018-05-09T00:28:47.295Z,17.40
2018-05-09T00:30:58.418Z,17.34
2018-05-09T00:33:09.539Z,17.25
2018-05-09T00:35:20.653Z,17.16
2018-05-09T00:37:31.753Z,17.11
2018-05-09T00:39:42.812Z,17.09
2018-05-09T00:41:53.902Z,17.08
2018-05-09T00:44:05.006Z,16.93
2018-05-09T00:46:16.086Z,16.83
2018-05-09T00:48:27.182Z,16.87
2018-05-09T00:50:38.268Z,16.87
2018-05-09T00:52:49.367Z,16.77
2018-05-09T00:55:00.522Z,16.69
2018-05-09T00:57:11.607Z,16.65
2018-05-09T00:59:22.715Z,16.52
2018-05-09T01:01:33.781Z,16.49
2018-05-09T01:03:44.857Z,16.39
2018-05-09T01:05:55.954Z,16.34
2018-05-09T01:08:07.038Z,16.34
2018-05-09T01:10:18.449Z,16.33
2018-05-09T01:12:29.501Z,16.22
2018-05-09T01:14:40.755Z,16.10
2018-05-09T01:16:51.857Z,15.97
2018-05-09T01:19:02.962Z,15.86
2018-05-09T01:21:14.054Z,15.79
2018-05-09T01:23:25.144Z,15.70
2018-05-09T01:25:36.334Z,15.63
2018-05-09T01:27:47.377Z,15.58
2018-05-09T01:29:58.528Z,15.58
2018-05-09T01:32:09.606Z,15.55
2018-05-09T01:34:20.874Z,15.53
2018-05-09T01:36:31.978Z,15.54
2018-05-09T01:38:43.045Z,15.49
2018-05-09T01:40:54.135Z,15.43
2018-05-09T01:43:05.232Z,15.42
2018-05-09T01:45:16.334Z,15.38
2018-05-09T01:47:27.417Z,15.39
2018-05-09T01:49:38.585Z,15.38
2018-05-09T01:51:49.651Z,15.38
2018-05-09T01:54:00.789Z,15.37
2018-05-09T01:56:11.842Z,15.37
2018-05-09T01:58:22.913Z,15.39
2018-05-09T02:00:33.973Z,15.41
2018-05-09T02:02:45.130Z,15.39
2018-05-09T02:04:56.255Z,15.37
2018-05-09T02:07:07.417Z,15.38
2018-05-09T02:09:18.585Z,15.40
2018-05-09T02:11:29.663Z,15.41
2018-05-09T02:13:40.918Z,15.38
2018-05-09T02:15:51.969Z,15.39
2018-05-09T02:18:03.018Z,15.39
2018-05-09T02:20:14.097Z,15.35
2018-05-09T02:22:25.179Z,15.26
2018-05-09T02:24:36.411Z,15.11
2018-05-09T02:26:47.470Z,14.94
2018-05-09T02:28:58.574Z,14.63
2018-05-09T02:31:09.727Z,14.55
2018-05-09T02:33:20.701Z,14.51
2018-05-09T02:35:31.794Z,14.36
2018-05-09T02:37:42.886Z,14.15
2018-05-09T02:39:53.982Z,14.17
2018-05-09T02:42:05.066Z,14.16
2018-05-09T02:44:16.206Z,14.12
2018-05-09T02:46:27.299Z,14.07
2018-05-09T02:48:38.551Z,14.05
2018-05-09T02:50:49.646Z,14.04
2018-05-09T02:53:00.759Z,14.06
2018-05-09T02:55:11.806Z,14.06
2018-05-09T02:57:22.899Z,14.03
2018-05-09T02:59:34.004Z,14.06
2018-05-09T03:01:45.162Z,14.08
2018-05-09T03:03:56.314Z,14.08
2018-05-09T03:06:07.403Z,14.07
2018-05-09T03:08:18.594Z,14.08
2018-05-09T03:10:29.668Z,14.07
2018-05-09T03:12:40.758Z,14.03
2018-05-09T03:14:51.839Z,14.05
2018-05-09T03:17:02.954Z,13.98
2018-05-09T03:19:14.010Z,13.89
2018-05-09T03:21:25.131Z,13.83
2018-05-09T03:23:36.221Z,13.72
2018-05-09T03:25:47.319Z,13.57
2018-05-09T03:27:58.444Z,13.42
2018-05-09T03:30:09.553Z,13.36
2018-05-09T03:32:20.630Z,13.31
2018-05-09T03:34:31.703Z,13.32
2018-05-09T03:36:42.850Z,13.37
2018-05-09T03:38:53.970Z,13.27
2018-05-09T03:41:05.142Z,13.22
2018-05-09T03:43:16.150Z,13.19
2018-05-09T03:45:27.217Z,13.19
2018-05-09T03:47:38.264Z,13.24
2018-05-09T03:49:49.357Z,13.24
2018-05-09T03:52:00.522Z,13.19
2018-05-09T03:54:11.590Z,13.17
2018-05-09T03:56:22.846Z,13.10
2018-05-09T03:58:33.909Z,13.02
2018-05-09T04:00:45.034Z,12.95
2018-05-09T04:03:08.448Z,12.86
2018-05-09T04:05:31.785Z,12.83
2018-05-09T04:07:55.193Z,12.87
2018-05-09T04:10:06.326Z,12.94
2018-05-09T04:12:18.294Z,12.99
2018-05-09T04:14:29.481Z,13.05
2018-05-09T04:16:40.638Z,13.11
2018-05-09T04:18:51.692Z,13.13
2018-05-09T04:21:02.782Z,13.12
2018-05-09T04:23:13.906Z,13.11
2018-05-09T04:25:25.026Z,12.98
2018-05-09T04:27:36.074Z,12.89
2018-05-09T04:29:47.162Z,12.93
2018-05-09T04:31:58.300Z,13.04
2018-05-09T04:34:09.469Z,13.21
2018-05-09T04:36:21.223Z,13.38
2018-05-09T04:38:32.283Z,13.58
2018-05-09T04:40:43.514Z,13.74
2018-05-09T04:42:54.596Z,13.94
2018-05-09T04:45:05.682Z,14.08
2018-05-09T04:47:16.844Z,14.22
2018-05-09T04:49:27.874Z,14.37
2018-05-09T04:51:39.065Z,14.58
2018-05-09T04:53:50.154Z,14.77
2018-05-09T04:56:01.261Z,14.91
2018-05-09T04:58:12.499Z,15.04
2018-05-09T05:00:23.612Z,15.14
2018-05-09T05:02:34.710Z,15.25
2018-05-09T05:04:45.838Z,15.40
2018-05-09T05:06:57.019Z,15.50
2018-05-09T05:09:08.078Z,15.60
2018-05-09T05:11:19.189Z,15.76
2018-05-09T05:13:30.315Z,15.89
2018-05-09T05:15:41.427Z,16.01
2018-05-09T05:17:52.507Z,16.18
2018-05-09T05:20:03.586Z,16.34
2018-05-09T05:22:14.723Z,16.48
2018-05-09T05:24:25.814Z,16.58
2018-05-09T05:26:36.968Z,16.63
2018-05-09T05:28:48.077Z,16.74
2018-05-09T05:30:59.214Z,16.87
2018-05-09T05:33:10.302Z,17.01
2018-05-09T05:35:21.563Z,17.11
2018-05-09T05:37:32.724Z,17.14
2018-05-09T05:39:43.851Z,17.14
2018-05-09T05:41:55.011Z,17.19
2018-05-09T05:44:06.122Z,17.35
2018-05-09T05:46:17.225Z,17.56
2018-05-09T05:48:28.308Z,17.77
2018-05-09T05:50:39.492Z,17.96
2018-05-09T05:52:50.627Z,18.15
2018-05-09T05:55:01.769Z,18.38
2018-05-09T05:57:12.881Z,18.57
2018-05-09T05:59:23.966Z,18.77
2018-05-09T06:01:35.112Z,19.01
2018-05-09T06:03:46.165Z,19.15
2018-05-09T06:05:57.307Z,19.33
2018-05-09T06:08:08.398Z,19.48
2018-05-09T06:10:19.465Z,19.65
2018-05-09T06:12:30.606Z,19.79
2018-05-09T06:14:41.782Z,20.00
2018-05-09T06:16:52.985Z,20.23
2018-05-09T06:19:04.062Z,20.37
2018-05-09T06:21:15.198Z,20.49
2018-05-09T06:23:26.298Z,20.62
2018-05-09T06:25:37.385Z,20.81
2018-05-09T06:27:48.486Z,21.02
2018-05-09T06:29:59.562Z,21.24
2018-05-09T06:32:10.687Z,21.41
2018-05-09T06:34:21.760Z,21.62
2018-05-09T06:36:32.854Z,21.95
2018-05-09T06:38:43.950Z,22.27
2018-05-09T06:40:55.073Z,22.68
2018-05-09T06:43:06.154Z,23.07
2018-05-09T06:45:17.219Z,23.37
2018-05-09T06:47:28.310Z,23.70
2018-05-09T06:49:39.459Z,23.94
2018-05-09T06:51:50.490Z,24.05
2018-05-09T06:54:01.626Z,24.28
2018-05-09T06:56:12.705Z,24.47
2018-05-09T06:58:23.827Z,24.53
2018-05-09T07:00:34.910Z,24.49
2018-05-09T07:02:45.993Z,24.54
2018-05-09T07:04:57.143Z,24.66
2018-05-09T07:07:08.246Z,24.69
2018-05-09T07:09:19.452Z,24.81
2018-05-09T07:11:30.525Z,24.83
2018-05-09T07:13:41.663Z,24.89
2018-05-09T07:15:52.754Z,25.06
2018-05-09T07:18:03.806Z,25.28
2018-05-09T07:20:14.887Z,25.37
2018-05-09T07:22:26.062Z,25.51
2018-05-09T07:24:37.215Z,25.40
2018-05-09T07:26:48.354Z,25.26
2018-05-09T07:28:59.545Z,25.27
2018-05-09T07:31:10.596Z,25.38
2018-05-09T07:33:21.766Z,25.26
2018-05-09T07:35:32.871Z,25.38
2018-05-09T07:37:43.977Z,25.35
2018-05-09T07:39:55.054Z,25.34
2018-05-09T07:42:06.205Z,25.19
2018-05-09T07:44:17.306Z,25.17
2018-05-09T07:46:28.490Z,25.26
2018-05-09T07:48:39.625Z,25.19
2018-05-09T07:50:50.707Z,25.40
2018-05-09T07:53:01.882Z,25.65
2018-05-09T07:55:12.995Z,25.85
2018-05-09T07:57:24.054Z,25.95
2018-05-09T07:59:35.166Z,25.96
2018-05-09T08:01:46.270Z,26.11
2018-05-09T08:03:57.358Z,26.14
2018-05-09T08:06:08.645Z,26.14
2018-05-09T08:08:19.675Z,26.08
2018-05-09T08:10:30.793Z,26.00
2018-05-09T08:12:41.905Z,25.91
2018-05-09T08:14:53.066Z,25.91
2018-05-09T08:17:04.145Z,26.08
2018-05-09T08:19:15.206Z,26.11
2018-05-09T08:21:26.342Z,26.24
2018-05-09T08:23:37.534Z,26.14
2018-05-09T08:25:48.677Z,26.22
2018-05-09T08:27:59.764Z,26.40
2018-05-09T08:30:10.930Z,26.48
2018-05-09T08:32:22.130Z,26.36
2018-05-09T08:34:33.189Z,26.35
2018-05-09T08:36:44.362Z,26.34
2018-05-09T08:38:55.362Z,26.47
2018-05-09T08:41:09.116Z,26.60
2018-05-09T08:43:20.341Z,26.73
2018-05-09T08:45:31.321Z,26.79
2018-05-09T08:47:42.442Z,26.82
2018-05-09T08:49:53.523Z,26.62
2018-05-09T08:52:05.422Z,26.53
2018-05-09T08:54:16.546Z,26.55
2018-05-09T08:56:27.699Z,26.67
2018-05-09T08:58:38.826Z,26.51
2018-05-09T09:00:51.005Z,26.62
2018-05-09T09:03:03.127Z,26.80
2018-05-09T09:05:14.246Z,26.90
2018-05-09T09:07:25.317Z,26.99
2018-05-09T09:09:36.461Z,26.90
2018-05-09T09:11:47.519Z,26.76
2018-05-09T09:13:58.692Z,26.88
2018-05-09T09:16:09.760Z,27.09
2018-05-09T09:18:20.843Z,27.22
2018-05-09T09:20:31.963Z,27.34
2018-05-09T09:22:43.027Z,27.42
2018-05-09T09:24:54.193Z,27.52
2018-05-09T09:27:05.280Z,27.51
2018-05-09T09:29:16.458Z,27.57
2018-05-09T09:31:28.274Z,27.32
2018-05-09T09:33:39.361Z,27.07
2018-05-09T09:35:50.463Z,27.12
2018-05-09T09:38:05.159Z,27.26
2018-05-09T09:40:16.286Z,27.34
2018-05-09T09:42:27.376Z,27.20
2018-05-09T09:44:38.517Z,26.78
2018-05-09T09:46:49.607Z,26.32
2018-05-09T09:49:00.662Z,25.94
2018-05-09T09:51:11.751Z,25.70
2018-05-09T09:53:22.846Z,25.64
2018-05-09T09:55:34.819Z,25.64
2018-05-09T09:57:45.934Z,25.69
2018-05-09T09:59:57.062Z,25.59
2018-05-09T10:02:08.167Z,25.49
2018-05-09T10:04:19.262Z,25.30
2018-05-09T10:06:30.407Z,25.15
2018-05-09T10:08:41.477Z,25.25
2018-05-09T10:10:52.622Z,25.81
2018-05-09T10:13:03.853Z,26.01
2018-05-09T10:15:14.967Z,25.96
2018-05-09T10:17:26.173Z,25.83
2018-05-09T10:19:37.241Z,25.74
2018-05-09T10:21:48.390Z,25.56
2018-05-09T10:23:59.465Z,25.28
2018-05-09T10:26:10.557Z,25.08
2018-05-09T10:28:21.717Z,24.89
2018-05-09T10:30:32.807Z,24.82
2018-05-09T10:32:44.041Z,25.17
2018-05-09T10:34:55.170Z,25.55
2018-05-09T10:37:06.300Z,25.50
2018-05-09T10:39:17.402Z,25.37
2018-05-09T10:41:35.244Z,25.18
2018-05-09T10:43:49.603Z,25.03
2018-05-09T10:46:00.694Z,25.02
2018-05-09T10:48:11.761Z,25.05
2018-05-09T10:50:22.889Z,25.16
2018-05-09T10:52:34.066Z,25.41
2018-05-09T10:54:45.180Z,25.68
2018-05-09T10:56:56.258Z,25.83
2018-05-09T10:59:07.326Z,26.22
2018-05-09T11:01:18.461Z,26.73
2018-05-09T11:03:29.543Z,27.11
2018-05-09T11:05:40.696Z,27.39
2018-05-09T11:07:51.799Z,27.45
2018-05-09T11:10:02.914Z,27.30
2018-05-09T11:12:14.084Z,27.41
2018-05-09T11:14:25.199Z,27.41
2018-05-09T11:16:36.320Z,27.17
2018-05-09T11:18:47.399Z,26.88
2018-05-09T11:20:58.666Z,26.58
2018-05-09T11:23:09.738Z,26.46
2018-05-09T11:25:20.831Z,26.65
2018-05-09T11:27:31.938Z,26.99
2018-05-09T11:29:43.029Z,27.13
2018-05-09T11:31:54.166Z,27.13
2018-05-09T11:34:05.258Z,27.26
2018-05-09T11:36:16.386Z,27.40
2018-05-09T11:38:27.511Z,27.35
2018-05-09T11:40:38.747Z,27.47
2018-05-09T11:42:49.826Z,27.65
2018-05-09T11:45:00.907Z,27.86
2018-05-09T11:47:11.997Z,28.05
2018-05-09T11:49:23.134Z,27.92
2018-05-09T11:51:34.254Z,27.64
2018-05-09T11:53:45.403Z,27.35
2018-05-09T11:55:56.654Z,27.11
2018-05-09T11:58:07.778Z,26.91
2018-05-09T12:00:18.980Z,26.70
2018-05-09T12:02:30.181Z,26.55
2018-05-09T12:04:41.264Z,26.48
2018-05-09T12:06:52.377Z,26.43
2018-05-09T12:09:03.488Z,26.30
2018-05-09T12:11:14.637Z,26.27
2018-05-09T12:13:25.758Z,26.21
2018-05-09T12:15:36.941Z,26.07
2018-05-09T12:17:48.054Z,25.84
2018-05-09T12:19:59.147Z,25.67
2018-05-09T12:22:10.315Z,25.63
2018-05-09T12:24:21.379Z,25.57
2018-05-09T12:26:32.515Z,25.82
2018-05-09T12:28:43.566Z,26.07
2018-05-09T12:30:54.742Z,26.13
2018-05-09T12:33:05.819Z,26.12
2018-05-09T12:35:16.924Z,26.07
2018-05-09T12:37:28.063Z,25.98
2018-05-09T12:39:39.231Z,25.87
2018-05-09T12:41:51.355Z,25.68
2018-05-09T12:44:02.494Z,25.51
2018-05-09T12:46:13.633Z,25.49
2018-05-09T12:48:26.159Z,25.45
2018-05-09T12:50:37.174Z,25.37
2018-05-09T12:52:48.314Z,25.41
2018-05-09T12:54:59.406Z,25.38
2018-05-09T12:57:12.590Z,25.41
2018-05-09T12:59:23.677Z,25.53
2018-05-09T13:01:34.830Z,25.71
2018-05-09T13:03:45.894Z,25.89
2018-05-09T13:05:57.090Z,25.84
2018-05-09T13:08:08.185Z,25.79
2018-05-09T13:10:19.315Z,25.74
2018-05-09T13:12:30.422Z,25.67
2018-05-09T13:14:41.570Z,25.58
2018-05-09T13:16:52.664Z,25.51
2018-05-09T13:19:03.750Z,25.43
2018-05-09T13:21:14.893Z,25.38
2018-05-09T13:23:25.958Z,25.41
2018-05-09T13:25:37.162Z,25.41
2018-05-09T13:27:48.234Z,25.52
2018-05-09T13:30:03.110Z,25.70
2018-05-09T13:32:14.177Z,25.84
2018-05-09T13:34:25.350Z,25.94
2018-05-09T13:36:36.539Z,26.02
2018-05-09T13:38:47.649Z,26.16
2018-05-09T13:40:58.815Z,26.31
2018-05-09T13:43:09.921Z,26.35
2018-05-09T13:45:21.018Z,26.26
2018-05-09T13:47:32.125Z,26.23
2018-05-09T13:49:43.197Z,26.36
2018-05-09T13:51:54.405Z,26.46
2018-05-09T13:54:05.404Z,26.58
2018-05-09T13:56:16.490Z,26.63
2018-05-09T13:58:27.655Z,26.58
2018-05-09T14:00:38.858Z,26.66
2018-05-09T14:02:49.959Z,26.61
2018-05-09T14:05:01.063Z,26.52
2018-05-09T14:07:12.214Z,26.45
2018-05-09T14:09:24.246Z,26.43
2018-05-09T14:11:35.313Z,26.37
2018-05-09T14:13:46.400Z,26.37
2018-05-09T14:15:58.355Z,26.42
2018-05-09T14:18:09.733Z,26.38
2018-05-09T14:20:20.934Z,26.39
2018-05-09T14:22:32.035Z,26.48
2018-05-09T14:24:43.154Z,26.69
2018-05-09T14:26:54.223Z,26.84
2018-05-09T14:29:05.334Z,26.95
2018-05-09T14:31:16.433Z,26.97
2018-05-09T14:33:27.566Z,26.96
2018-05-09T14:35:38.677Z,26.87
2018-05-09T14:37:49.735Z,26.71
2018-05-09T14:40:00.811Z,26.53
2018-05-09T14:42:11.933Z,26.38
2018-05-09T14:44:23.050Z,26.17
2018-05-09T14:46:34.230Z,25.99
2018-05-09T14:48:45.292Z,25.87
2018-05-09T14:51:00.158Z,25.79
2018-05-09T14:53:11.272Z,25.74
2018-05-09T14:55:22.321Z,25.74
2018-05-09T14:57:33.460Z,25.73
2018-05-09T14:59:45.506Z,25.69
2018-05-09T15:01:56.620Z,25.66
2018-05-09T15:04:07.788Z,25.66
2018-05-09T15:06:19.011Z,25.62
2018-05-09T15:08:30.197Z,25.56
2018-05-09T15:10:41.251Z,25.56
2018-05-09T15:12:52.341Z,25.49
2018-05-09T15:15:03.477Z,25.49
2018-05-09T15:17:14.589Z,25.47
2018-05-09T15:19:25.706Z,25.44
2018-05-09T15:21:36.771Z,25.48
2018-05-09T15:23:47.875Z,25.48
2018-05-09T15:25:59.106Z,25.52
2018-05-09T15:28:10.241Z,25.53
2018-05-09T15:30:21.351Z,25.52
2018-05-09T15:32:32.460Z,25.52
2018-05-09T15:34:43.561Z,25.54
2018-05-09T15:36:54.654Z,25.60
2018-05-09T15:39:05.818Z,25.62
2018-05-09T15:41:16.869Z,25.67
2018-05-09T15:43:28.037Z,25.74
2018-05-09T15:45:39.235Z,25.82
2018-05-09T15:47:50.314Z,25.80
2018-05-09T15:50:01.486Z,25.91
2018-05-09T15:52:12.554Z,26.04
2018-05-09T15:54:23.634Z,26.14
2018-05-09T15:56:34.727Z,26.24
2018-05-09T15:58:45.882Z,26.30
2018-05-09T16:00:57.124Z,26.33
2018-05-09T16:03:08.274Z,26.32
2018-05-09T16:05:19.383Z,26.28
2018-05-09T16:07:30.562Z,26.27
2018-05-09T16:09:41.660Z,26.29
2018-05-09T16:11:52.800Z,26.29
2018-05-09T16:14:03.951Z,26.18
2018-05-09T16:16:15.034Z,26.02
2018-05-09T16:18:26.139Z,25.89
2018-05-09T16:20:37.230Z,25.80
2018-05-09T16:22:48.313Z,25.70
2018-05-09T16:24:59.494Z,25.64
2018-05-09T16:27:10.597Z,25.56
2018-05-09T16:29:21.869Z,25.42
2018-05-09T16:31:32.965Z,25.33
2018-05-09T16:33:44.077Z,25.24
2018-05-09T16:35:55.154Z,25.15
2018-05-09T16:38:06.230Z,25.15
2018-05-09T16:40:17.374Z,25.12
2018-05-09T16:42:28.463Z,25.07
2018-05-09T16:44:39.681Z,25.04
2018-05-09T16:46:50.758Z,25.04
2018-05-09T16:49:01.951Z,25.00
2018-05-09T16:51:13.097Z,24.95
2018-05-09T16:53:24.250Z,24.87
2018-05-09T16:55:35.334Z,24.79
2018-05-09T16:57:46.425Z,24.75
2018-05-09T16:59:57.621Z,24.76
2018-05-09T17:02:08.794Z,24.79
2018-05-09T17:04:19.950Z,24.72
2018-05-09T17:06:31.057Z,24.64
2018-05-09T17:08:42.193Z,24.51
2018-05-09T17:10:53.323Z,24.42
2018-05-09T17:13:04.489Z,24.32
2018-05-09T17:15:15.549Z,24.25
2018-05-09T17:17:26.670Z,24.21
2018-05-09T17:19:37.814Z,24.14
2018-05-09T17:24:43.110Z,24.12
2018-05-09T17:26:54.230Z,24.16
2018-05-09T17:29:05.333Z,24.18
2018-05-09T17:31:16.410Z,24.18
2018-05-09T17:33:27.536Z,24.17
2018-05-09T17:35:38.654Z,24.09
2018-05-09T17:37:49.873Z,23.99
2018-05-09T17:40:00.941Z,23.95
2018-05-09T17:42:12.094Z,23.91
2018-05-09T17:44:23.178Z,23.86
2018-05-09T17:46:34.259Z,23.85
2018-05-09T17:48:45.454Z,23.80
2018-05-09T17:50:56.537Z,23.72
2018-05-09T17:53:07.623Z,23.62
2018-05-09T17:55:18.709Z,23.50
2018-05-09T17:57:29.831Z,23.38
2018-05-09T17:59:40.912Z,23.37
2018-05-09T18:01:52.066Z,23.32
2018-05-09T18:04:03.359Z,23.29
2018-05-09T18:06:14.474Z,23.26
2018-05-09T18:08:25.734Z,23.19
2018-05-09T18:10:36.827Z,23.11
2018-05-09T18:12:48.010Z,23.05
2018-05-09T18:14:59.200Z,22.95
2018-05-09T18:17:10.339Z,22.91
2018-05-09T18:19:21.658Z,22.85
2018-05-09T18:21:32.834Z,22.71
2018-05-09T18:23:43.977Z,22.55
2018-05-09T18:25:55.166Z,22.43
2018-05-09T18:28:06.505Z,22.35
2018-05-09T18:30:17.637Z,22.20
2018-05-09T18:32:28.738Z,22.13
2018-05-09T18:34:39.853Z,21.95
2018-05-09T18:36:50.942Z,21.81
2018-05-09T18:39:02.138Z,21.75
2018-05-09T18:41:13.255Z,21.67
2018-05-09T18:43:24.407Z,21.68
2018-05-09T18:45:35.824Z,21.66
2018-05-09T18:47:46.924Z,21.47
2018-05-09T18:49:58.106Z,21.38
2018-05-09T18:52:09.209Z,21.35
2018-05-09T18:54:20.334Z,21.24
2018-05-09T18:56:31.456Z,21.16
2018-05-09T18:58:42.546Z,21.08
2018-05-09T19:00:53.716Z,20.95
2018-05-09T19:03:04.800Z,20.83
2018-05-09T19:05:15.945Z,20.84
2018-05-09T19:07:27.065Z,20.78
2018-05-09T19:09:38.196Z,20.80
2018-05-09T19:11:49.339Z,20.74
2018-05-09T19:14:00.614Z,20.61
2018-05-09T19:16:11.667Z,20.60
2018-05-09T19:18:22.790Z,20.51
2018-05-09T19:20:33.893Z,20.45
2018-05-09T19:22:45.026Z,20.38
2018-05-09T19:24:56.215Z,20.38
2018-05-09T19:27:07.339Z,20.41
2018-05-09T19:29:18.598Z,20.33
2018-05-09T19:31:29.697Z,20.31
2018-05-09T19:33:40.762Z,20.27
2018-05-09T19:35:51.925Z,20.23
2018-05-09T19:38:03.031Z,20.24
2018-05-09T19:40:14.146Z,20.26
2018-05-09T19:42:25.202Z,20.29
2018-05-09T19:44:36.334Z,20.30
2018-05-09T19:46:48.174Z,20.29
2018-05-09T19:48:59.284Z,20.22
2018-05-09T19:51:10.436Z,20.24
2018-05-09T19:53:21.515Z,20.23
2018-05-09T19:55:32.770Z,20.14
2018-05-09T19:57:43.991Z,20.04
2018-05-09T19:59:55.100Z,20.05
2018-05-09T20:02:06.411Z,20.13
2018-05-09T20:04:17.594Z,20.15
2018-05-09T20:06:28.720Z,20.17
2018-05-09T20:08:39.868Z,20.16
2018-05-09T20:10:50.950Z,20.20
2018-05-09T20:13:02.069Z,20.25
2018-05-09T20:15:13.175Z,20.30
2018-05-09T20:17:24.316Z,20.33
2018-05-09T20:19:35.397Z,20.35
2018-05-09T20:21:46.628Z,20.36
2018-05-09T20:23:57.718Z,20.37
2018-05-09T20:26:08.902Z,20.38
2018-05-09T20:28:20.015Z,20.41
2018-05-09T20:30:36.939Z,20.43
2018-05-09T20:32:48.108Z,20.45
2018-05-09T20:34:59.207Z,20.48
2018-05-09T20:37:10.356Z,20.47
2018-05-09T20:39:21.439Z,20.47
2018-05-09T20:41:32.589Z,20.43
2018-05-09T20:43:43.690Z,20.39
2018-05-09T20:45:54.880Z,20.33
2018-05-09T20:48:06.069Z,20.25
2018-05-09T20:50:17.135Z,20.16
2018-05-09T20:52:28.255Z,20.05
2018-05-09T20:54:39.350Z,19.92
2018-05-09T20:56:50.487Z,19.79
2018-05-09T20:59:01.653Z,19.71
2018-05-09T21:01:24.806Z,19.69
2018-05-09T21:03:35.898Z,19.56
2018-05-09T21:05:46.966Z,19.47
2018-05-09T21:07:58.272Z,19.37
2018-05-09T21:10:09.428Z,19.36
2018-05-09T21:12:20.634Z,19.48
2018-05-09T21:14:31.747Z,19.50
2018-05-09T21:16:42.835Z,19.44
2018-05-09T21:18:53.989Z,19.36
2018-05-09T21:21:05.079Z,19.26
2018-05-09T21:23:16.199Z,19.16
2018-05-09T21:25:27.304Z,19.09
2018-05-09T21:27:38.449Z,19.12
2018-05-09T21:29:49.522Z,19.14
2018-05-09T21:32:00.666Z,19.19
2018-05-09T21:34:11.755Z,19.16
2018-05-09T21:36:22.835Z,19.14
2018-05-09T21:38:33.926Z,19.16
2018-05-09T21:40:45.068Z,19.16
2018-05-09T21:42:56.147Z,19.10
2018-05-09T21:45:07.282Z,19.05
2018-05-09T21:47:18.432Z,18.90
2018-05-09T21:49:29.707Z,18.78
2018-05-09T21:51:40.807Z,18.68
2018-05-09T21:53:51.890Z,18.61
2018-05-09T21:56:03.260Z,18.58
2018-05-09T21:58:14.231Z,18.60
2018-05-09T22:00:25.334Z,18.62
2018-05-09T22:02:36.453Z,18.53
2018-05-09T22:04:47.539Z,18.40
2018-05-09T22:06:58.660Z,18.39
2018-05-09T22:09:09.709Z,18.37
2018-05-09T22:11:20.867Z,18.31
2018-05-09T22:13:31.972Z,18.23
2018-05-09T22:15:43.066Z,18.15
2018-05-09T22:17:54.189Z,18.10
2018-05-09T22:20:05.271Z,18.02
2018-05-09T22:22:16.420Z,17.82
2018-05-09T22:24:27.507Z,17.76
2018-05-09T22:26:38.893Z,17.68
2018-05-09T22:28:49.964Z,17.57
2018-05-09T22:31:01.110Z,17.35
2018-05-09T22:33:12.282Z,17.19
2018-05-09T22:35:23.405Z,17.18
2018-05-09T22:37:34.535Z,17.10
2018-05-09T22:39:45.651Z,16.88
2018-05-09T22:41:56.689Z,16.79
2018-05-09T22:44:07.847Z,16.77
2018-05-09T22:46:19.029Z,16.73
2018-05-09T22:48:30.145Z,16.57
2018-05-09T22:50:41.272Z,16.48
2018-05-09T22:52:52.375Z,16.36
2018-05-09T22:55:03.560Z,16.31
2018-05-09T22:57:14.547Z,16.28
2018-05-09T22:59:25.689Z,16.27
2018-05-09T23:01:36.795Z,16.27
2018-05-09T23:03:47.893Z,16.29
2018-05-09T23:05:59.062Z,16.14
2018-05-09T23:08:10.163Z,16.04
2018-05-09T23:10:21.271Z,15.91
2018-05-09T23:12:32.341Z,15.86
2018-05-09T23:14:43.457Z,15.80
2018-05-09T23:16:54.512Z,15.76
2018-05-09T23:19:05.611Z,15.75
2018-05-09T23:21:16.753Z,15.82
2018-05-09T23:23:27.871Z,15.81
2018-05-09T23:25:38.981Z,15.78
2018-05-09T23:27:50.088Z,15.83
2018-05-09T23:30:01.261Z,15.89
2018-05-09T23:32:12.358Z,15.91
2018-05-09T23:34:23.456Z,15.88
2018-05-09T23:36:34.555Z,15.89
2018-05-09T23:38:45.682Z,15.94
2018-05-09T23:40:56.814Z,15.94
2018-05-09T23:43:07.974Z,15.89
2018-05-09T23:45:19.153Z,15.83
2018-05-09T23:47:30.269Z,15.72
2018-05-09T23:49:41.318Z,15.64
2018-05-09T23:51:52.410Z,15.64
2018-05-09T23:54:03.491Z,15.62
2018-05-09T23:56:14.550Z,15.58
2018-05-09T23:58:25.642Z,15.63
